Time;durP1;ratioP1;P1;durP2;ratioP2;P2;SDS_P1;SDS_P2;PMS_P1;PMS_P2;Temp;Humidity;BMP_temperature;BMP_pressure;BME280_temperature;BME280_humidity;BME280_pressure;Samples;Min_cycle;Max_cycle;Signal;HPM_P1;HPM_P2
2024/01/02 00:00:22;;;;;;;;;;;;;;;5.10;79.48;99703.44;5034153;28;20016;-84
2024/01/02 00:02:48;;;;;;;;;;;;;;;5.07;79.58;99695.66;5041700;28;19925;-83
2024/01/02 00:05:15;;;;;;;;;;;;;;;5.06;79.85;99696.50;5034364;28;20082;-82
2024/01/02 00:07:42;;;;;;;;;;;;;;;5.09;79.70;99682.63;5038589;28;20047;-83
2024/01/02 00:10:09;;;;;;;;;;;;;;;5.15;79.24;99686.03;5018826;28;19925;-83
2024/01/02 00:12:35;;;;;;;;;;;;;;;5.14;79.33;99681.75;5013598;28;19925;-82
2024/01/02 00:15:03;;;;;;;;;;;;;;;5.20;79.17;99678.25;5034549;28;19929;-84
2024/01/02 00:17:29;;;;;;;;;;;;;;;5.17;79.14;99666.09;5030246;28;19929;-83
2024/01/02 00:19:56;;;;;;;;;;;;;;;5.19;79.06;99656.53;5041128;28;19933;-83
2024/01/02 00:22:23;;;;;;;;;;;;;;;5.25;78.93;99654.81;5035938;28;19971;-83
2024/01/02 00:24:50;;;;;;;;;;;;;;;5.18;79.02;99649.59;5007181;28;19926;-82
2024/01/02 00:27:17;;;;;;;;;;;;;;;5.20;79.00;99649.63;5019591;28;19967;-82
2024/01/02 00:29:43;;;;;;;;;;;;;;;5.22;79.08;99640.06;5035782;28;19936;-83
2024/01/02 00:32:10;;;;;;;;;;;;;;;5.27;78.80;99653.03;5038926;28;19972;-83
2024/01/02 00:34:38;;;;;;;;;;;;;;;5.25;78.98;99634.00;5042094;28;19925;-83
2024/01/02 00:37:04;;;;;;;;;;;;;;;5.30;78.54;99637.41;5044353;28;19925;-83
2024/01/02 00:39:31;;;;;;;;;;;;;;;5.35;78.51;99633.06;5043497;28;19929;-83
2024/01/02 00:41:58;;;;;;;;;;;;;;;5.32;78.53;99623.53;5018640;28;19926;-82
2024/01/02 00:44:24;;;;;;;;;;;;;;;5.39;78.14;99621.75;5034799;28;19991;-84
2024/01/02 00:46:51;;;;;;;;;;;;;;;5.40;78.49;99613.06;5027167;28;19995;-82
2024/01/02 00:49:17;;;;;;;;;;;;;;;5.39;78.57;99606.13;5041065;28;19929;-83
2024/01/02 00:51:44;;;;;;;;;;;;;;;5.40;78.58;99602.63;5038769;28;19925;-83
2024/01/02 00:54:11;;;;;;;;;;;;;;;5.38;78.58;99599.19;5038960;28;19933;-84
2024/01/02 00:56:38;;;;;;;;;;;;;;;5.39;78.88;99588.78;5040844;28;19925;-83
2024/01/02 00:59:04;;;;;;;;;;;;;;;5.40;78.96;99587.03;5041631;28;19993;-82
2024/01/02 01:01:31;;;;;;;;;;;;;;;5.40;78.88;99576.63;5031746;28;20411;-82
2024/01/02 01:03:58;;;;;;;;;;;;;;;5.43;79.03;99587.03;5032509;28;19939;-82
2024/01/02 01:06:25;;;;;;;;;;;;;;;5.37;80.16;99581.84;5043223;28;19935;-82
2024/01/02 01:08:51;;;;;;;;;;;;;;;5.44;79.33;99588.72;5024323;28;19933;-86
2024/01/02 01:11:20;;;;;;;;;;;;;;;5.42;79.75;99585.28;5030410;28;19925;-86
2024/01/02 01:13:46;;;;;;;;;;;;;;;5.39;79.84;99580.97;5030060;28;19975;-83
2024/01/02 01:16:13;;;;;;;;;;;;;;;5.38;80.07;99567.97;5018024;28;20020;-84
2024/01/02 01:18:40;;;;;;;;;;;;;;;5.38;80.25;99563.63;5019304;28;19925;-84
2024/01/02 01:21:07;;;;;;;;;;;;;;;5.39;80.22;99554.09;5018115;28;20016;-82
2024/01/02 01:23:34;;;;;;;;;;;;;;;5.37;80.77;99554.13;5024413;28;19940;-82
2024/01/02 01:26:01;;;;;;;;;;;;;;;5.34;81.08;99555.88;5042092;28;19932;-84
2024/01/02 01:28:29;;;;;;;;;;;;;;;5.34;81.15;99551.50;5027600;28;19926;-83
2024/01/02 01:30:55;;;;;;;;;;;;;;;5.31;81.32;99550.69;5029167;28;20373;-83
2024/01/02 01:33:22;;;;;;;;;;;;;;;5.22;81.97;99552.47;5029574;28;19993;-82
2024/01/02 01:35:49;;;;;;;;;;;;;;;5.21;82.14;99539.47;5037835;28;19940;-84
2024/01/02 01:38:16;;;;;;;;;;;;;;;5.19;82.53;99547.28;5040722;28;19924;-84
2024/01/02 01:40:43;;;;;;;;;;;;;;;5.16;83.06;99542.13;5038196;28;19929;-81
2024/01/02 01:43:11;;;;;;;;;;;;;;;5.14;83.20;99533.47;5036290;28;19964;-86
2024/01/02 01:45:39;;;;;;;;;;;;;;;5.14;83.31;99536.06;5039943;28;19925;-87
2024/01/02 01:48:08;;;;;;;;;;;;;;;5.08;84.02;99530.91;5038843;28;19925;-83
2024/01/02 01:50:36;;;;;;;;;;;;;;;5.02;84.40;99528.34;5032658;28;19933;-82
2024/01/02 01:53:03;;;;;;;;;;;;;;;5.01;84.57;99532.69;5025678;28;19928;-82
2024/01/02 01:55:31;;;;;;;;;;;;;;;4.98;84.81;99524.94;5025330;28;19925;-84
2024/01/02 01:57:57;;;;;;;;;;;;;;;4.95;85.18;99516.25;5031161;28;19924;-86
2024/01/02 02:00:24;;;;;;;;;;;;;;;4.96;84.93;99518.00;5041068;28;19933;-84
2024/01/02 02:02:51;;;;;;;;;;;;;;;4.95;85.42;99511.06;5019893;28;20044;-83
2024/01/02 02:05:18;;;;;;;;;;;;;;;4.92;85.86;99505.88;5015105;28;19925;-83
2024/01/02 02:07:45;;;;;;;;;;;;;;;4.87;86.27;99496.38;5014093;28;19952;-88
2024/01/02 02:10:12;;;;;;;;;;;;;;;4.93;85.87;99486.81;5033217;28;19968;-83
2024/01/02 02:12:38;;;;;;;;;;;;;;;4.86;86.31;99480.78;5032344;28;19926;-92
2024/01/02 02:15:05;;;;;;;;;;;;;;;4.79;87.21;99482.56;5035226;28;19999;-83
2024/01/02 02:17:42;;;;;;;;;;;;;;;4.81;87.34;99478.22;5022005;28;19947;-83
2024/01/02 02:20:09;;;;;;;;;;;;;;;4.83;87.28;99483.41;5031922;28;19932;-83
2024/01/02 02:22:37;;;;;;;;;;;;;;;4.79;87.39;99464.38;5043201;28;19925;-83
2024/01/02 02:25:04;;;;;;;;;;;;;;;4.75;87.79;99462.69;5038313;28;19956;-81
2024/01/02 02:27:32;;;;;;;;;;;;;;;4.73;88.04;99463.56;5029968;28;19925;-82
2024/01/02 02:29:58;;;;;;;;;;;;;;;4.72;88.54;99462.69;5014491;28;19925;-85
2024/01/02 02:32:25;;;;;;;;;;;;;;;4.72;88.54;99446.22;5036880;28;20003;-82
2024/01/02 02:34:52;;;;;;;;;;;;;;;4.66;88.94;99442.81;5013273;28;19979;-89
2024/01/02 02:37:19;;;;;;;;;;;;;;;4.64;89.26;99439.34;5017334;28;20071;-80
2024/01/02 02:39:46;;;;;;;;;;;;;;;4.63;89.29;99422.03;5015648;28;19929;-90
2024/01/02 02:42:13;;;;;;;;;;;;;;;4.63;89.32;99416.81;5014439;28;19925;-83
2024/01/02 02:44:42;;;;;;;;;;;;;;;4.66;89.33;99415.94;5016464;28;19925;-81
2024/01/02 02:47:10;;;;;;;;;;;;;;;4.66;89.26;99402.94;5009550;28;19952;-81
2024/01/02 02:49:37;;;;;;;;;;;;;;;4.63;89.55;99400.38;5011069;28;19940;-82
2024/01/02 02:52:04;;;;;;;;;;;;;;;4.62;89.74;99388.25;5037542;28;19934;-85
2024/01/02 02:54:31;;;;;;;;;;;;;;;4.64;89.88;99387.38;5042102;28;20003;-81
2024/01/02 02:56:58;;;;;;;;;;;;;;;4.61;90.09;99376.16;5031570;28;19932;-80
2024/01/02 02:59:25;;;;;;;;;;;;;;;4.62;90.07;99367.47;5017148;28;19933;-81
2024/01/02 03:01:51;;;;;;;;;;;;;;;4.61;89.83;99360.56;5037372;28;19983;-81
2024/01/02 03:04:18;;;;;;;;;;;;;;;4.62;90.14;99344.06;5034170;28;19925;-81
2024/01/02 03:06:45;;;;;;;;;;;;;;;4.61;90.13;99331.97;5032399;28;19931;-82
2024/01/02 03:09:12;;;;;;;;;;;;;;;4.61;90.25;99324.19;5036437;28;19943;-81
2024/01/02 03:11:38;;;;;;;;;;;;;;;4.62;90.26;99318.09;5032648;28;19974;-81
2024/01/02 03:14:05;;;;;;;;;;;;;;;4.60;90.32;99322.44;5032573;28;19980;-81
2024/01/02 03:16:32;;;;;;;;;;;;;;;4.58;90.52;99308.63;5032842;28;19929;-81
2024/01/02 03:18:58;;;;;;;;;;;;;;;4.59;90.59;99315.53;5032699;28;19925;-83
2024/01/02 03:21:28;;;;;;;;;;;;;;;4.59;90.50;99300.81;5038116;28;19925;-82
2024/01/02 03:23:55;;;;;;;;;;;;;;;4.60;90.75;99293.88;5028759;28;19964;-81
2024/01/02 03:26:22;;;;;;;;;;;;;;;4.61;90.61;99285.22;5022068;28;19925;-81
2024/01/02 03:28:49;;;;;;;;;;;;;;;4.60;90.83;99281.72;5053170;28;19925;-83
2024/01/02 03:31:15;;;;;;;;;;;;;;;4.62;90.45;99274.78;5039621;28;19928;-81
2024/01/02 03:33:42;;;;;;;;;;;;;;;4.60;90.88;99271.34;5041140;28;19925;-82
2024/01/02 03:36:13;;;;;;;;;;;;;;;4.60;90.79;99260.09;5034229;28;19925;-81
2024/01/02 03:38:39;;;;;;;;;;;;;;;4.62;90.71;99255.72;5032793;28;19925;-85
2024/01/02 03:41:06;;;;;;;;;;;;;;;4.62;90.84;99253.13;5030084;28;19925;-83
2024/01/02 03:43:33;;;;;;;;;;;;;;;4.60;91.14;99245.34;5027584;28;19929;-81
2024/01/02 03:46:00;;;;;;;;;;;;;;;4.60;91.26;99234.09;5046050;28;19933;-81
2024/01/02 03:48:26;;;;;;;;;;;;;;;4.59;91.35;99232.38;5027331;28;20020;-82
2024/01/02 03:50:53;;;;;;;;;;;;;;;4.61;91.42;99233.22;5023572;28;19925;-83
2024/01/02 03:53:20;;;;;;;;;;;;;;;4.59;91.34;99222.84;5034403;28;20277;-82
2024/01/02 03:55:47;;;;;;;;;;;;;;;4.60;91.31;99213.31;5031880;28;19925;-82
2024/01/02 03:58:14;;;;;;;;;;;;;;;4.60;91.63;99214.16;5041001;28;19933;-82
2024/01/02 04:00:40;;;;;;;;;;;;;;;4.62;91.46;99198.56;5039581;28;19925;-83
2024/01/02 04:03:07;;;;;;;;;;;;;;;4.64;91.83;99199.41;5033979;28;19934;-81
2024/01/02 04:05:34;;;;;;;;;;;;;;;4.65;91.58;99190.72;5035241;28;19925;-81
2024/01/02 04:08:01;;;;;;;;;;;;;;;4.63;91.72;99180.34;5027570;28;20007;-80
2024/01/02 04:10:27;;;;;;;;;;;;;;;4.67;91.84;99168.19;5027915;28;19976;-81
2024/01/02 04:12:54;;;;;;;;;;;;;;;4.66;91.74;99163.88;5023659;28;19925;-81
2024/01/02 04:15:21;;;;;;;;;;;;;;;4.68;91.80;99159.53;5020043;28;19931;-85
2024/01/02 04:17:48;;;;;;;;;;;;;;;4.68;91.61;99151.72;5026045;28;19975;-81
2024/01/02 04:20:15;;;;;;;;;;;;;;;4.69;91.83;99140.44;5020347;28;19949;-86
2024/01/02 04:22:41;;;;;;;;;;;;;;;4.72;91.70;99132.59;5010285;28;19968;-80
2024/01/02 04:25:08;;;;;;;;;;;;;;;4.77;91.76;99123.03;5022813;28;19932;-89
2024/01/02 04:27:35;;;;;;;;;;;;;;;4.77;91.46;99112.63;5034211;28;19925;-83
2024/01/02 04:30:02;;;;;;;;;;;;;;;4.78;91.44;99101.34;5035391;28;19979;-84
2024/01/02 04:32:29;;;;;;;;;;;;;;;4.80;91.38;99099.59;5034894;28;19925;-82
2024/01/02 04:34:56;;;;;;;;;;;;;;;4.82;91.49;99100.44;5034923;28;19933;-81
2024/01/02 04:37:22;;;;;;;;;;;;;;;4.83;91.81;99088.28;5027254;28;19933;-81
2024/01/02 04:39:49;;;;;;;;;;;;;;;4.85;91.39;99095.19;5027092;28;19925;-82
2024/01/02 04:42:16;;;;;;;;;;;;;;;4.82;91.68;99074.44;5033532;28;19983;-83
2024/01/02 04:44:43;;;;;;;;;;;;;;;4.87;91.55;99070.03;5038953;28;19925;-81
2024/01/02 04:47:10;;;;;;;;;;;;;;;4.87;91.35;99064.81;5031464;28;19932;-82
2024/01/02 04:49:36;;;;;;;;;;;;;;;4.87;91.50;99062.22;5021955;28;19940;-83
2024/01/02 04:52:03;;;;;;;;;;;;;;;4.91;91.52;99062.19;5030252;28;19933;-81
2024/01/02 04:54:30;;;;;;;;;;;;;;;4.90;91.99;99057.88;5038350;28;19925;-82
2024/01/02 04:56:57;;;;;;;;;;;;;;;4.91;91.55;99041.38;5031387;28;19929;-80
2024/01/02 04:59:24;;;;;;;;;;;;;;;4.94;91.76;99036.13;5030233;28;19925;-82
2024/01/02 05:01:51;;;;;;;;;;;;;;;4.94;91.46;99038.75;5030675;28;19929;-82
2024/01/02 05:04:17;;;;;;;;;;;;;;;4.98;91.59;99027.41;5034827;28;19940;-82
2024/01/02 05:06:44;;;;;;;;;;;;;;;4.94;91.57;99016.22;5024152;28;19980;-82
2024/01/02 05:09:11;;;;;;;;;;;;;;;4.98;91.66;99011.81;5032751;28;19939;-81
2024/01/02 05:11:38;;;;;;;;;;;;;;;4.98;91.48;99017.91;5019174;28;19932;-82
2024/01/02 05:14:05;;;;;;;;;;;;;;;5.00;91.55;99020.47;5032942;28;19925;-81
2024/01/02 05:16:31;;;;;;;;;;;;;;;4.98;91.67;99022.22;5032281;28;19969;-82
2024/01/02 05:18:58;;;;;;;;;;;;;;;5.00;91.69;99010.91;5015358;28;19926;-81
2024/01/02 05:21:25;;;;;;;;;;;;;;;5.02;91.58;99000.50;5038836;28;19936;-81
2024/01/02 05:23:51;;;;;;;;;;;;;;;5.02;91.54;98988.34;5037619;28;19947;-86
2024/01/02 05:26:18;;;;;;;;;;;;;;;5.05;91.44;98974.44;5033363;28;19933;-82
2024/01/02 05:28:45;;;;;;;;;;;;;;;5.06;91.50;98968.34;5018236;28;20343;-81
2024/01/02 05:31:11;;;;;;;;;;;;;;;5.10;91.46;98970.03;5035210;28;19931;-84
2024/01/02 05:33:38;;;;;;;;;;;;;;;5.12;91.32;98960.44;5021131;28;19930;-80
2024/01/02 05:36:05;;;;;;;;;;;;;;;5.13;91.39;98963.94;5016763;28;19948;-83
2024/01/02 05:38:31;;;;;;;;;;;;;;;5.15;91.30;98946.53;5031756;28;19975;-82
2024/01/02 05:40:58;;;;;;;;;;;;;;;5.14;91.39;98961.31;5018002;28;19925;-82
2024/01/02 05:43:25;;;;;;;;;;;;;;;5.19;91.12;98943.00;5035868;28;19925;-84
2024/01/02 05:45:52;;;;;;;;;;;;;;;5.18;91.25;98941.28;5030463;28;19925;-86
2024/01/02 05:48:19;;;;;;;;;;;;;;;5.20;91.08;98950.78;5045332;28;19931;-84
2024/01/02 05:50:46;;;;;;;;;;;;;;;5.23;90.96;98955.94;5037660;28;19944;-85
2024/01/02 05:53:12;;;;;;;;;;;;;;;5.20;91.07;98955.16;5042250;28;19925;-83
2024/01/02 05:55:39;;;;;;;;;;;;;;;5.23;91.23;98948.13;5038531;28;19925;-86
2024/01/02 05:58:06;;;;;;;;;;;;;;;5.23;91.45;98939.47;5033231;28;20015;-84
2024/01/02 06:00:34;;;;;;;;;;;;;;;5.22;91.30;98936.00;5017939;28;19933;-83
2024/01/02 06:03:00;;;;;;;;;;;;;;;5.30;91.05;98940.22;5039531;28;19933;-85
2024/01/02 06:05:27;;;;;;;;;;;;;;;5.28;90.97;98929.00;5039757;28;20526;-83
2024/01/02 06:07:54;;;;;;;;;;;;;;;5.30;91.02;98920.28;5017411;28;19972;-82
2024/01/02 06:10:21;;;;;;;;;;;;;;;5.29;91.20;98920.31;5024077;28;19941;-83
2024/01/02 06:12:48;;;;;;;;;;;;;;;5.31;91.38;98915.94;5042152;28;19924;-83
2024/01/02 06:15:14;;;;;;;;;;;;;;;5.31;91.37;98918.53;5039433;28;19933;-83
2024/01/02 06:17:44;;;;;;;;;;;;;;;5.34;91.32;98921.06;5025172;28;19924;-82
2024/01/02 06:20:11;;;;;;;;;;;;;;;5.34;91.21;98915.88;5034876;28;19929;-83
2024/01/02 06:22:38;;;;;;;;;;;;;;;5.35;91.30;98926.25;5019123;28;19936;-84
2024/01/02 06:25:08;;;;;;;;;;;;;;;5.36;91.45;98911.50;5028426;28;19937;-86
2024/01/02 06:27:35;;;;;;;;;;;;;;;5.44;91.20;98938.22;5020127;28;19948;-86
2024/01/02 06:30:25;;;;;;;;;;;;;;;5.38;91.51;98926.19;5038218;28;19925;-82
2024/01/02 06:32:52;;;;;;;;;;;;;;;5.40;91.64;98926.16;5033588;28;19964;-83
2024/01/02 06:35:19;;;;;;;;;;;;;;;5.43;91.55;98925.25;5023173;28;19925;-84
2024/01/02 06:37:46;;;;;;;;;;;;;;;5.44;91.76;98917.41;5015255;28;19933;-83
2024/01/02 06:40:13;;;;;;;;;;;;;;;5.45;91.82;98915.69;5029224;28;19935;-84
2024/01/02 06:42:40;;;;;;;;;;;;;;;5.48;91.75;98924.28;5034745;28;19925;-82
2024/01/02 06:45:07;;;;;;;;;;;;;;;5.53;91.81;98919.84;5032340;28;19948;-83
2024/01/02 06:47:34;;;;;;;;;;;;;;;5.54;91.81;98924.16;5033017;28;19925;-85
2024/01/02 06:50:01;;;;;;;;;;;;;;;5.55;92.03;98915.47;5022795;28;19933;-86
2024/01/02 06:52:28;;;;;;;;;;;;;;;5.57;91.92;98929.31;5026314;28;19929;-83
2024/01/02 06:54:54;;;;;;;;;;;;;;;5.56;91.98;98912.00;5037933;28;19932;-82
2024/01/02 06:57:21;;;;;;;;;;;;;;;5.57;92.08;98916.28;5042576;28;20109;-83
2024/01/02 06:59:48;;;;;;;;;;;;;;;5.57;92.21;98918.88;5032193;28;19933;-84
2024/01/02 07:02:14;;;;;;;;;;;;;;;5.56;92.32;98925.00;5019717;28;20337;-84
2024/01/02 07:04:41;;;;;;;;;;;;;;;5.58;92.20;98923.22;5035488;28;19937;-82
2024/01/02 07:07:09;;;;;;;;;;;;;;;5.58;92.64;98907.59;5037472;28;19996;-85
2024/01/02 07:09:35;;;;;;;;;;;;;;;5.60;92.72;98910.16;5036628;28;19925;-82
2024/01/02 07:12:03;;;;;;;;;;;;;;;5.61;92.84;98921.47;5020307;28;19925;-84
2024/01/02 07:14:29;;;;;;;;;;;;;;;5.68;92.82;98941.28;5027538;28;20012;-83
2024/01/02 07:16:56;;;;;;;;;;;;;;;5.65;92.87;98938.72;5040066;28;19933;-84
2024/01/02 07:19:23;;;;;;;;;;;;;;;5.68;92.75;98951.69;5041430;28;19974;-81
2024/01/02 07:21:50;;;;;;;;;;;;;;;5.71;92.66;98942.06;5028411;28;19933;-84
2024/01/02 07:24:17;;;;;;;;;;;;;;;5.74;92.99;98967.19;5019051;28;20020;-82
2024/01/02 07:26:43;;;;;;;;;;;;;;;5.77;92.86;98980.13;5052566;28;19924;-84
2024/01/02 07:29:10;;;;;;;;;;;;;;;5.78;92.95;98984.47;5031382;28;19975;-86
2024/01/02 07:31:37;;;;;;;;;;;;;;;5.77;92.74;99000.97;5013913;28;19926;-87
2024/01/02 07:34:05;;;;;;;;;;;;;;;5.81;92.78;98997.41;5016684;28;19925;-82
2024/01/02 07:36:32;;;;;;;;;;;;;;;5.84;92.67;99002.56;5043577;28;19967;-82
2024/01/02 07:38:59;;;;;;;;;;;;;;;5.91;92.49;99009.38;5035301;28;20012;-84
2024/01/02 07:41:25;;;;;;;;;;;;;;;5.94;92.36;99013.69;5036310;28;20016;-83
2024/01/02 07:43:52;;;;;;;;;;;;;;;5.93;92.19;99014.56;5050625;28;19924;-82
2024/01/02 07:46:19;;;;;;;;;;;;;;;5.93;92.12;99015.41;5032957;28;19932;-85
2024/01/02 07:48:45;;;;;;;;;;;;;;;5.99;92.17;99011.84;5031460;28;19999;-82
2024/01/02 07:51:12;;;;;;;;;;;;;;;5.98;91.97;99007.56;5041566;28;19928;-81
2024/01/02 07:53:39;;;;;;;;;;;;;;;6.00;92.01;99010.13;5048399;28;20614;-84
2024/01/02 07:56:06;;;;;;;;;;;;;;;5.99;92.04;99009.25;5033319;28;19925;-82
2024/01/02 07:58:32;;;;;;;;;;;;;;;5.99;92.38;99014.47;5034089;28;20409;-84
2024/01/02 08:00:59;;;;;;;;;;;;;;;6.05;92.41;99013.50;5035203;28;19929;-85
2024/01/02 08:03:26;;;;;;;;;;;;;;;6.06;92.32;99007.41;5033336;28;19987;-82
2024/01/02 08:05:54;;;;;;;;;;;;;;;6.06;92.35;99015.22;5014756;28;19992;-85
2024/01/02 08:08:22;;;;;;;;;;;;;;;6.12;92.32;99014.25;5021349;28;19932;-82
2024/01/02 08:10:49;;;;;;;;;;;;;;;6.08;92.63;99003.00;5026857;28;20315;-83
2024/01/02 08:13:15;;;;;;;;;;;;;;;6.13;92.34;99000.34;5019320;28;19933;-88
2024/01/02 08:15:42;;;;;;;;;;;;;;;6.12;92.46;99009.88;5017265;28;19983;-83
2024/01/02 08:18:09;;;;;;;;;;;;;;;6.14;92.50;99010.72;5036656;28;19928;-82
2024/01/02 08:20:37;;;;;;;;;;;;;;;6.12;92.34;99009.03;5029541;28;19925;-84
2024/01/02 08:23:05;;;;;;;;;;;;;;;6.17;92.19;99002.84;5008683;28;19925;-85
2024/01/02 08:25:32;;;;;;;;;;;;;;;6.15;92.24;98998.53;5028501;28;19933;-85
2024/01/02 08:28:00;;;;;;;;;;;;;;;6.15;92.19;98978.56;5015749;28;19933;-83
2024/01/02 08:30:26;;;;;;;;;;;;;;;6.15;92.39;98994.19;5027242;28;19979;-84
2024/01/02 08:32:53;;;;;;;;;;;;;;;6.18;92.45;98999.31;5014455;28;19925;-82
2024/01/02 08:35:20;;;;;;;;;;;;;;;6.26;92.01;98994.81;5032515;28;19952;-83
2024/01/02 08:37:47;;;;;;;;;;;;;;;6.30;91.94;98997.38;5033883;28;19933;-82
2024/01/02 08:40:14;;;;;;;;;;;;;;;6.28;92.08;98988.75;5045908;28;19925;-85
2024/01/02 08:42:41;;;;;;;;;;;;;;;6.29;91.99;99003.50;5041901;28;19971;-82
2024/01/02 08:45:10;;;;;;;;;;;;;;;6.29;92.23;98995.66;5026413;28;19933;-84
2024/01/02 08:47:38;;;;;;;;;;;;;;;6.26;92.07;99002.66;5027920;28;19932;-83
2024/01/02 08:50:06;;;;;;;;;;;;;;;6.30;92.21;99002.56;5037778;28;19925;-83
2024/01/02 08:52:35;;;;;;;;;;;;;;;6.30;92.13;99007.78;5045952;28;19959;-84
2024/01/02 08:55:03;;;;;;;;;;;;;;;6.30;92.32;99013.00;5031424;28;20023;-82
2024/01/02 08:57:32;;;;;;;;;;;;;;;6.32;92.22;99021.66;5017914;28;19929;-83
2024/01/02 08:59:59;;;;;;;;;;;;;;;6.31;92.43;99027.75;5031279;28;19935;-83
2024/01/02 09:02:26;;;;;;;;;;;;;;;6.36;92.48;99025.94;5034281;28;19925;-83
2024/01/02 09:04:53;;;;;;;;;;;;;;;6.39;92.33;99033.69;5028307;28;19983;-84
2024/01/02 09:07:20;;;;;;;;;;;;;;;6.48;92.01;99037.84;5035766;28;19932;-83
2024/01/02 09:09:47;;;;;;;;;;;;;;;6.47;91.75;99031.75;5050654;28;19996;-84
2024/01/02 09:12:14;;;;;;;;;;;;;;;6.39;92.14;99029.31;5045386;28;20012;-84
2024/01/02 09:14:40;;;;;;;;;;;;;;;6.46;91.76;99043.09;5036717;28;19940;-84
2024/01/02 09:17:07;;;;;;;;;;;;;;;6.51;91.47;99038.63;5026889;28;20028;-84
2024/01/02 09:19:34;;;;;;;;;;;;;;;6.56;91.32;99047.22;5028624;28;19933;-84
2024/01/02 09:22:01;;;;;;;;;;;;;;;6.66;90.67;99052.22;5021034;28;20393;-83
2024/01/02 09:24:28;;;;;;;;;;;;;;;6.87;89.88;99036.09;5034566;28;19936;-84
2024/01/02 09:26:55;;;;;;;;;;;;;;;6.64;90.04;99043.59;5033649;28;19932;-83
2024/01/02 09:29:24;;;;;;;;;;;;;;;6.58;90.65;99044.56;5030602;28;19925;-83
2024/01/02 09:31:51;;;;;;;;;;;;;;;6.55;90.81;99034.22;5038358;28;19924;-85
2024/01/02 09:34:18;;;;;;;;;;;;;;;6.58;90.57;99044.56;5037887;28;20019;-85
2024/01/02 09:36:46;;;;;;;;;;;;;;;6.61;90.31;99036.69;5036591;28;19925;-83
2024/01/02 09:39:13;;;;;;;;;;;;;;;6.68;89.94;99051.31;5035084;28;19932;-83
2024/01/02 09:41:46;;;;;;;;;;;;;;;6.80;89.23;99047.56;5038270;28;19932;-85
2024/01/02 09:44:12;;;;;;;;;;;;;;;6.80;89.55;99052.78;5042976;28;19928;-83
2024/01/02 09:46:40;;;;;;;;;;;;;;;6.85;89.13;99045.72;5036650;28;20160;-84
2024/01/02 09:49:15;;;;;;;;;;;;;;;6.87;88.63;99045.69;5020083;28;19933;-83
2024/01/02 09:51:44;;;;;;;;;;;;;;;6.95;88.42;99046.34;5029234;28;19932;-82
2024/01/02 09:54:24;;;;;;;;;;;;;;;6.92;88.30;99038.59;5034930;28;19972;-84
2024/01/02 09:56:53;;;;;;;;;;;;;;;7.00;88.09;99043.66;5022573;28;19942;-84
2024/01/02 09:59:32;;;;;;;;;;;;;;;7.38;85.57;99042.75;5050315;28;19984;-85
2024/01/02 10:02:14;;;;;;;;;;;;;;;7.09;87.22;99035.63;5023243;28;19979;-83
2024/01/02 10:04:46;;;;;;;;;;;;;;;6.97;87.90;99032.41;5024682;28;19929;-85
2024/01/02 10:07:25;;;;;;;;;;;;;;;7.01;88.00;99037.53;5034809;28;19975;-83
2024/01/02 10:09:55;;;;;;;;;;;;;;;7.12;87.37;99036.41;5044030;28;19958;-88
2024/01/02 10:13:03;;;;;;;;;;;;;;;7.19;86.89;99031.06;5038764;28;19929;-85
2024/01/02 10:15:35;;;;;;;;;;;;;;;7.28;86.41;99031.66;5017740;28;19925;-85
2024/01/02 10:18:20;;;;;;;;;;;;;;;7.27;86.71;99032.59;5034862;28;19939;-84
2024/01/02 10:20:51;;;;;;;;;;;;;;;7.42;86.00;99025.28;5025685;28;19944;-84
2024/01/02 10:23:22;;;;;;;;;;;;;;;7.44;86.18;99020.88;5014998;28;19932;-85
2024/01/02 10:25:50;;;;;;;;;;;;;;;7.24;87.13;99014.41;5015820;28;19968;-84
2024/01/02 10:28:18;;;;;;;;;;;;;;;7.22;87.42;99013.56;5031521;28;19925;-85
2024/01/02 10:31:03;;;;;;;;;;;;;;;7.17;87.91;99011.94;5045085;28;19925;-84
2024/01/02 10:33:31;;;;;;;;;;;;;;;7.17;88.16;98999.78;5015635;28;19983;-84
2024/01/02 10:36:03;;;;;;;;;;;;;;;7.16;88.29;99003.28;5041402;28;19924;-84
2024/01/02 10:38:29;;;;;;;;;;;;;;;7.19;88.12;98990.16;5034457;28;19925;-83
2024/01/02 10:41:17;;;;;;;;;;;;;;;7.20;88.07;98999.72;5020252;28;20350;-86
2024/01/02 10:43:58;;;;;;;;;;;;;;;7.16;88.33;98985.00;5039422;28;19967;-83
2024/01/02 10:46:29;;;;;;;;;;;;;;;7.15;88.91;98972.84;5015352;28;19929;-84
2024/01/02 10:49:07;;;;;;;;;;;;;;;7.21;88.49;98982.28;5019069;28;20395;-83
2024/01/02 10:51:37;;;;;;;;;;;;;;;7.21;88.76;98982.28;5011733;28;19976;-84
2024/01/02 10:54:08;;;;;;;;;;;;;;;7.20;88.78;98971.00;5020950;28;19997;-85
2024/01/02 10:56:34;;;;;;;;;;;;;;;7.19;88.99;98974.50;4976986;28;19929;-86
2024/01/02 10:59:21;;;;;;;;;;;;;;;7.19;88.74;98963.22;5028107;28;19976;-85
2024/01/02 11:01:48;;;;;;;;;;;;;;;7.17;89.28;98960.66;5043023;28;19925;-83
2024/01/02 11:04:24;;;;;;;;;;;;;;;7.16;89.36;98953.72;5054027;28;19951;-84
2024/01/02 11:07:02;;;;;;;;;;;;;;;7.20;89.40;98950.13;5045078;28;19933;-84
2024/01/02 11:09:33;;;;;;;;;;;;;;;7.21;89.47;98950.97;5033006;28;19936;-85
2024/01/02 11:11:59;;;;;;;;;;;;;;;7.24;89.17;98954.38;5053756;28;19932;-83
2024/01/02 11:14:41;;;;;;;;;;;;;;;7.28;88.69;98952.53;5044486;28;19925;-85
2024/01/02 11:17:07;;;;;;;;;;;;;;;7.29;88.75;98944.66;5027978;28;19925;-84
2024/01/02 11:19:42;;;;;;;;;;;;;;;7.29;88.61;98942.06;5036405;28;19925;-84
2024/01/02 11:22:17;;;;;;;;;;;;;;;7.27;88.96;98941.25;5034191;28;19926;-84
2024/01/02 11:24:47;;;;;;;;;;;;;;;7.29;88.97;98939.44;5044262;28;20348;-85
2024/01/02 11:27:15;;;;;;;;;;;;;;;7.26;88.98;98934.31;5042721;28;19993;-84
2024/01/02 11:29:43;;;;;;;;;;;;;;;7.24;89.29;98930.03;5048635;28;19925;-88
2024/01/02 11:32:13;;;;;;;;;;;;;;;7.26;89.41;98921.28;5052228;28;19992;-85
2024/01/02 11:34:39;;;;;;;;;;;;;;;7.27;89.46;98909.06;5044206;28;19969;-85
2024/01/02 11:37:12;;;;;;;;;;;;;;;7.26;89.48;98908.22;5046558;28;19925;-84
2024/01/02 11:39:51;;;;;;;;;;;;;;;7.27;89.55;98906.47;5049204;28;19925;-83
2024/01/02 11:42:24;;;;;;;;;;;;;;;7.21;89.77;98897.06;5042631;28;19932;-85
2024/01/02 11:44:57;;;;;;;;;;;;;;;7.21;90.23;98894.44;5036826;28;19932;-84
2024/01/02 11:47:44;;;;;;;;;;;;;;;7.19;90.56;98898.84;5050172;28;19933;-85
2024/01/02 11:50:14;;;;;;;;;;;;;;;7.18;90.45;98888.44;5048096;28;19952;-86
2024/01/02 11:52:49;;;;;;;;;;;;;;;7.16;90.87;98878.06;5040610;28;19925;-83
2024/01/02 11:55:39;;;;;;;;;;;;;;;7.19;90.98;98877.97;5036014;28;19931;-84
2024/01/02 11:58:27;;;;;;;;;;;;;;;7.19;90.80;98875.34;5040805;28;19925;-87
2024/01/02 12:00:53;;;;;;;;;;;;;;;7.21;90.79;98872.69;5038341;28;19937;-83
2024/01/02 12:03:39;;;;;;;;;;;;;;;7.21;90.63;98863.16;5042804;28;20028;-86
2024/01/02 12:06:09;;;;;;;;;;;;;;;7.21;90.59;98857.94;5041129;28;19987;-84
2024/01/02 12:08:37;;;;;;;;;;;;;;;7.26;90.45;98847.34;5052657;28;19932;-84
2024/01/02 12:11:04;;;;;;;;;;;;;;;7.23;90.76;98837.84;5041406;28;19926;-84
2024/01/02 12:13:37;;;;;;;;;;;;;;;7.21;90.99;98842.28;5039649;28;19928;-85
2024/01/02 12:16:07;;;;;;;;;;;;;;;7.22;91.28;98825.69;5044240;28;19925;-84
2024/01/02 12:18:34;;;;;;;;;;;;;;;7.20;91.20;98824.91;5037482;28;20339;-84
2024/01/02 12:21:02;;;;;;;;;;;;;;;7.21;91.33;98815.31;5038083;28;19976;-84
2024/01/02 12:23:31;;;;;;;;;;;;;;;7.24;91.19;98805.66;5048841;28;19925;-84
2024/01/02 12:26:02;;;;;;;;;;;;;;;7.26;91.05;98803.00;5042153;28;19928;-85
2024/01/02 12:28:31;;;;;;;;;;;;;;;7.27;91.15;98795.13;5040876;28;19979;-84
2024/01/02 12:31:07;;;;;;;;;;;;;;;7.29;90.91;98798.53;5043112;28;19936;-84
2024/01/02 12:33:38;;;;;;;;;;;;;;;7.30;90.98;98789.81;5042715;28;19986;-84
2024/01/02 12:36:05;;;;;;;;;;;;;;;7.29;91.28;98782.88;5041350;28;19933;-83
2024/01/02 12:38:48;;;;;;;;;;;;;;;7.27;91.13;98779.47;5048320;28;20008;-84
2024/01/02 12:41:21;;;;;;;;;;;;;;;7.30;91.46;98765.50;5046938;28;20011;-85
2024/01/02 12:43:49;;;;;;;;;;;;;;;7.34;91.11;98771.47;5047701;28;19925;-85
2024/01/02 12:46:20;;;;;;;;;;;;;;;7.32;91.07;98772.34;5048672;28;20019;-84
2024/01/02 12:48:51;;;;;;;;;;;;;;;7.33;91.21;98762.78;5041336;28;19925;-85
2024/01/02 12:51:17;;;;;;;;;;;;;;;7.41;90.97;98765.16;5060282;28;19925;-84
2024/01/02 12:53:44;;;;;;;;;;;;;;;7.38;90.92;98753.06;5043450;28;19925;-84
2024/01/02 12:56:16;;;;;;;;;;;;;;;7.42;90.87;98751.22;5049886;28;19929;-85
2024/01/02 12:58:43;;;;;;;;;;;;;;;7.38;91.00;98747.84;5055047;28;19943;-84
2024/01/02 13:01:10;;;;;;;;;;;;;;;7.38;91.15;98750.44;5047436;28;19932;-85
2024/01/02 13:03:37;;;;;;;;;;;;;;;7.38;91.12;98749.59;5044130;28;19925;-84